sensor_id;sensor_type;location;lat;lon;timestamp;P1;durP1;ratioP1;P2;durP2;ratioP2
7527;SDS011;3805;49.006;8.514;2023-02-15T00:02:42;71.27;;;35.93;;
7527;SDS011;3805;49.006;8.514;2023-02-15T00:05:31;54.93;;;30.53;;
7527;SDS011;3805;49.006;8.514;2023-02-15T00:08:20;61.97;;;30.90;;
7527;SDS011;3805;49.006;8.514;2023-02-15T00:11:10;49.93;;;32.47;;
7527;SDS011;3805;49.006;8.514;2023-02-15T00:14:00;50.43;;;32.10;;
7527;SDS011;3805;49.006;8.514;2023-02-15T00:16:49;49.60;;;31.07;;
7527;SDS011;3805;49.006;8.514;2023-02-15T00:19:39;57.00;;;33.10;;
7527;SDS011;3805;49.006;8.514;2023-02-15T00:22:28;75.03;;;33.37;;
7527;SDS011;3805;49.006;8.514;2023-02-15T00:25:17;53.37;;;32.43;;
7527;SDS011;3805;49.006;8.514;2023-02-15T00:28:06;55.53;;;30.90;;
7527;SDS011;3805;49.006;8.514;2023-02-15T00:30:56;65.77;;;34.33;;
7527;SDS011;3805;49.006;8.514;2023-02-15T00:33:50;59.23;;;33.77;;
7527;SDS011;3805;49.006;8.514;2023-02-15T00:36:39;65.27;;;33.50;;
7527;SDS011;3805;49.006;8.514;2023-02-15T00:39:28;56.50;;;33.60;;
7527;SDS011;3805;49.006;8.514;2023-02-15T00:42:17;71.87;;;35.77;;
7527;SDS011;3805;49.006;8.514;2023-02-15T00:45:06;62.67;;;34.37;;
7527;SDS011;3805;49.006;8.514;2023-02-15T00:47:56;54.53;;;31.10;;
7527;SDS011;3805;49.006;8.514;2023-02-15T00:50:44;55.80;;;33.40;;
7527;SDS011;3805;49.006;8.514;2023-02-15T00:53:33;65.23;;;32.60;;
7527;SDS011;3805;49.006;8.514;2023-02-15T00:56:21;67.73;;;35.37;;
7527;SDS011;3805;49.006;8.514;2023-02-15T00:59:11;61.33;;;35.63;;
7527;SDS011;3805;49.006;8.514;2023-02-15T01:02:00;58.37;;;33.87;;
7527;SDS011;3805;49.006;8.514;2023-02-15T01:04:49;54.37;;;31.73;;
7527;SDS011;3805;49.006;8.514;2023-02-15T01:07:37;88.13;;;34.23;;
7527;SDS011;3805;49.006;8.514;2023-02-15T01:10:26;51.17;;;30.73;;
7527;SDS011;3805;49.006;8.514;2023-02-15T01:13:15;52.13;;;30.97;;
7527;SDS011;3805;49.006;8.514;2023-02-15T01:16:05;81.43;;;36.33;;
7527;SDS011;3805;49.006;8.514;2023-02-15T01:18:54;62.47;;;33.80;;
7527;SDS011;3805;49.006;8.514;2023-02-15T01:21:43;55.60;;;32.60;;
7527;SDS011;3805;49.006;8.514;2023-02-15T01:24:32;51.83;;;33.00;;
7527;SDS011;3805;49.006;8.514;2023-02-15T01:27:20;71.27;;;36.37;;
7527;SDS011;3805;49.006;8.514;2023-02-15T01:30:09;62.93;;;34.87;;
7527;SDS011;3805;49.006;8.514;2023-02-15T01:33:00;69.00;;;32.63;;
7527;SDS011;3805;49.006;8.514;2023-02-15T01:35:48;76.10;;;30.90;;
7527;SDS011;3805;49.006;8.514;2023-02-15T01:38:37;62.30;;;28.73;;
7527;SDS011;3805;49.006;8.514;2023-02-15T01:41:26;50.17;;;30.40;;
7527;SDS011;3805;49.006;8.514;2023-02-15T01:47:36;62.13;;;28.10;;
7527;SDS011;3805;49.006;8.514;2023-02-15T01:50:29;50.53;;;30.13;;
7527;SDS011;3805;49.006;8.514;2023-02-15T01:53:21;52.03;;;30.40;;
7527;SDS011;3805;49.006;8.514;2023-02-15T01:56:13;58.60;;;30.57;;
7527;SDS011;3805;49.006;8.514;2023-02-15T01:59:04;63.93;;;30.77;;
7527;SDS011;3805;49.006;8.514;2023-02-15T02:01:55;69.83;;;32.37;;
7527;SDS011;3805;49.006;8.514;2023-02-15T02:04:47;84.87;;;32.33;;
7527;SDS011;3805;49.006;8.514;2023-02-15T02:07:38;78.43;;;31.03;;
7527;SDS011;3805;49.006;8.514;2023-02-15T02:10:29;72.40;;;31.87;;
7527;SDS011;3805;49.006;8.514;2023-02-15T02:13:17;60.87;;;30.47;;
7527;SDS011;3805;49.006;8.514;2023-02-15T02:16:08;74.83;;;31.00;;
7527;SDS011;3805;49.006;8.514;2023-02-15T02:19:04;63.10;;;31.27;;
7527;SDS011;3805;49.006;8.514;2023-02-15T02:22:07;75.93;;;31.10;;
7527;SDS011;3805;49.006;8.514;2023-02-15T02:28:33;83.17;;;30.97;;
7527;SDS011;3805;49.006;8.514;2023-02-15T02:31:43;55.20;;;29.77;;
7527;SDS011;3805;49.006;8.514;2023-02-15T02:34:35;48.03;;;30.30;;
7527;SDS011;3805;49.006;8.514;2023-02-15T02:37:28;57.00;;;30.00;;
7527;SDS011;3805;49.006;8.514;2023-02-15T02:40:23;50.20;;;29.17;;
7527;SDS011;3805;49.006;8.514;2023-02-15T02:43:17;50.20;;;28.97;;
7527;SDS011;3805;49.006;8.514;2023-02-15T02:46:10;47.53;;;29.00;;
7527;SDS011;3805;49.006;8.514;2023-02-15T02:49:02;47.70;;;29.40;;
7527;SDS011;3805;49.006;8.514;2023-02-15T02:51:58;47.07;;;30.17;;
7527;SDS011;3805;49.006;8.514;2023-02-15T02:54:47;44.33;;;29.07;;
7527;SDS011;3805;49.006;8.514;2023-02-15T02:57:36;47.80;;;29.50;;
7527;SDS011;3805;49.006;8.514;2023-02-15T03:00:26;64.67;;;31.50;;
7527;SDS011;3805;49.006;8.514;2023-02-15T03:03:19;40.10;;;27.63;;
7527;SDS011;3805;49.006;8.514;2023-02-15T03:06:10;46.27;;;29.20;;
7527;SDS011;3805;49.006;8.514;2023-02-15T03:09:03;41.00;;;28.90;;
7527;SDS011;3805;49.006;8.514;2023-02-15T03:12:01;57.67;;;29.30;;
7527;SDS011;3805;49.006;8.514;2023-02-15T03:14:51;51.50;;;29.40;;
7527;SDS011;3805;49.006;8.514;2023-02-15T03:17:41;63.93;;;30.43;;
7527;SDS011;3805;49.006;8.514;2023-02-15T03:20:31;53.40;;;29.97;;
7527;SDS011;3805;49.006;8.514;2023-02-15T03:23:23;49.43;;;30.80;;
7527;SDS011;3805;49.006;8.514;2023-02-15T03:26:14;49.43;;;30.07;;
7527;SDS011;3805;49.006;8.514;2023-02-15T03:29:03;48.33;;;27.43;;
7527;SDS011;3805;49.006;8.514;2023-02-15T03:31:53;47.80;;;28.93;;
7527;SDS011;3805;49.006;8.514;2023-02-15T03:34:43;48.90;;;29.17;;
7527;SDS011;3805;49.006;8.514;2023-02-15T03:37:33;49.00;;;29.07;;
7527;SDS011;3805;49.006;8.514;2023-02-15T03:40:26;45.87;;;27.90;;
7527;SDS011;3805;49.006;8.514;2023-02-15T03:43:37;42.30;;;27.60;;
7527;SDS011;3805;49.006;8.514;2023-02-15T03:46:30;40.87;;;26.90;;
7527;SDS011;3805;49.006;8.514;2023-02-15T03:49:21;50.10;;;26.10;;
7527;SDS011;3805;49.006;8.514;2023-02-15T03:52:12;38.77;;;25.20;;
7527;SDS011;3805;49.006;8.514;2023-02-15T03:55:02;36.13;;;24.13;;
7527;SDS011;3805;49.006;8.514;2023-02-15T03:57:50;40.47;;;26.03;;
7527;SDS011;3805;49.006;8.514;2023-02-15T04:00:58;37.63;;;23.63;;
7527;SDS011;3805;49.006;8.514;2023-02-15T04:04:07;37.53;;;24.77;;
7527;SDS011;3805;49.006;8.514;2023-02-15T04:06:58;41.90;;;24.80;;
7527;SDS011;3805;49.006;8.514;2023-02-15T04:09:46;38.07;;;24.47;;
7527;SDS011;3805;49.006;8.514;2023-02-15T04:12:52;38.87;;;25.73;;
7527;SDS011;3805;49.006;8.514;2023-02-15T04:15:41;37.17;;;24.00;;
7527;SDS011;3805;49.006;8.514;2023-02-15T04:18:49;39.73;;;25.33;;
7527;SDS011;3805;49.006;8.514;2023-02-15T04:21:54;39.30;;;25.10;;
7527;SDS011;3805;49.006;8.514;2023-02-15T04:25:00;38.00;;;26.20;;
7527;SDS011;3805;49.006;8.514;2023-02-15T04:27:58;39.67;;;26.07;;
7527;SDS011;3805;49.006;8.514;2023-02-15T04:30:47;38.40;;;25.40;;
7527;SDS011;3805;49.006;8.514;2023-02-15T04:33:35;35.33;;;24.83;;
7527;SDS011;3805;49.006;8.514;2023-02-15T04:36:25;37.50;;;24.47;;
7527;SDS011;3805;49.006;8.514;2023-02-15T04:39:14;34.37;;;23.63;;
7527;SDS011;3805;49.006;8.514;2023-02-15T04:42:03;36.87;;;24.70;;
7527;SDS011;3805;49.006;8.514;2023-02-15T04:44:52;37.53;;;25.20;;
7527;SDS011;3805;49.006;8.514;2023-02-15T04:47:42;34.50;;;25.57;;
7527;SDS011;3805;49.006;8.514;2023-02-15T04:50:30;34.77;;;23.40;;
7527;SDS011;3805;49.006;8.514;2023-02-15T04:53:20;36.40;;;25.43;;
7527;SDS011;3805;49.006;8.514;2023-02-15T04:56:08;34.77;;;24.07;;
7527;SDS011;3805;49.006;8.514;2023-02-15T04:58:57;41.33;;;25.00;;
7527;SDS011;3805;49.006;8.514;2023-02-15T05:01:46;34.33;;;24.40;;
7527;SDS011;3805;49.006;8.514;2023-02-15T05:04:34;33.80;;;23.23;;
7527;SDS011;3805;49.006;8.514;2023-02-15T05:07:23;35.10;;;24.17;;
7527;SDS011;3805;49.006;8.514;2023-02-15T05:10:12;37.10;;;24.90;;
7527;SDS011;3805;49.006;8.514;2023-02-15T05:13:01;36.13;;;25.27;;
7527;SDS011;3805;49.006;8.514;2023-02-15T05:15:50;31.17;;;23.07;;
7527;SDS011;3805;49.006;8.514;2023-02-15T05:18:40;36.10;;;24.13;;
7527;SDS011;3805;49.006;8.514;2023-02-15T05:21:28;31.50;;;23.20;;
7527;SDS011;3805;49.006;8.514;2023-02-15T05:24:17;30.10;;;22.93;;
7527;SDS011;3805;49.006;8.514;2023-02-15T05:27:24;31.30;;;22.27;;
7527;SDS011;3805;49.006;8.514;2023-02-15T05:30:30;31.93;;;21.77;;
7527;SDS011;3805;49.006;8.514;2023-02-15T05:33:19;33.80;;;22.77;;
7527;SDS011;3805;49.006;8.514;2023-02-15T05:36:08;30.87;;;21.50;;
7527;SDS011;3805;49.006;8.514;2023-02-15T05:38:57;31.03;;;20.13;;
7527;SDS011;3805;49.006;8.514;2023-02-15T05:41:45;36.10;;;20.03;;
7527;SDS011;3805;49.006;8.514;2023-02-15T05:44:35;25.10;;;18.90;;
7527;SDS011;3805;49.006;8.514;2023-02-15T05:47:23;27.90;;;19.70;;
7527;SDS011;3805;49.006;8.514;2023-02-15T05:50:12;26.33;;;18.80;;
7527;SDS011;3805;49.006;8.514;2023-02-15T06:05:12;26.50;;;22.47;;
7527;SDS011;3805;49.006;8.514;2023-02-15T06:08:01;28.03;;;20.30;;
7527;SDS011;3805;49.006;8.514;2023-02-15T06:10:52;24.50;;;18.77;;
7527;SDS011;3805;49.006;8.514;2023-02-15T06:13:40;26.20;;;19.43;;
7527;SDS011;3805;49.006;8.514;2023-02-15T06:16:29;25.80;;;20.20;;
7527;SDS011;3805;49.006;8.514;2023-02-15T06:19:18;22.80;;;17.80;;
7527;SDS011;3805;49.006;8.514;2023-02-15T06:22:09;23.63;;;17.83;;
7527;SDS011;3805;49.006;8.514;2023-02-15T06:24:57;23.17;;;18.87;;
7527;SDS011;3805;49.006;8.514;2023-02-15T06:27:46;28.40;;;20.17;;
7527;SDS011;3805;49.006;8.514;2023-02-15T06:30:34;29.50;;;19.80;;
7527;SDS011;3805;49.006;8.514;2023-02-15T06:33:23;25.80;;;19.50;;
7527;SDS011;3805;49.006;8.514;2023-02-15T06:36:11;26.07;;;19.50;;
7527;SDS011;3805;49.006;8.514;2023-02-15T06:39:02;25.03;;;18.73;;
7527;SDS011;3805;49.006;8.514;2023-02-15T06:41:50;28.50;;;19.17;;
7527;SDS011;3805;49.006;8.514;2023-02-15T06:44:39;28.93;;;20.50;;
7527;SDS011;3805;49.006;8.514;2023-02-15T06:47:28;26.90;;;20.47;;
7527;SDS011;3805;49.006;8.514;2023-02-15T06:50:16;26.83;;;20.17;;
7527;SDS011;3805;49.006;8.514;2023-02-15T06:53:05;26.77;;;19.80;;
7527;SDS011;3805;49.006;8.514;2023-02-15T06:56:00;27.20;;;18.47;;
7527;SDS011;3805;49.006;8.514;2023-02-15T06:58:53;27.40;;;17.90;;
7527;SDS011;3805;49.006;8.514;2023-02-15T07:01:41;27.20;;;18.50;;
7527;SDS011;3805;49.006;8.514;2023-02-15T07:04:30;27.67;;;20.00;;
7527;SDS011;3805;49.006;8.514;2023-02-15T07:07:19;28.33;;;20.97;;
7527;SDS011;3805;49.006;8.514;2023-02-15T07:10:08;31.80;;;21.97;;
7527;SDS011;3805;49.006;8.514;2023-02-15T07:12:58;29.90;;;21.87;;
7527;SDS011;3805;49.006;8.514;2023-02-15T07:15:47;33.30;;;23.00;;
7527;SDS011;3805;49.006;8.514;2023-02-15T07:18:36;32.03;;;20.83;;
7527;SDS011;3805;49.006;8.514;2023-02-15T07:21:25;30.67;;;21.23;;
7527;SDS011;3805;49.006;8.514;2023-02-15T07:24:13;27.00;;;21.10;;
7527;SDS011;3805;49.006;8.514;2023-02-15T07:27:02;31.30;;;19.90;;
7527;SDS011;3805;49.006;8.514;2023-02-15T07:29:52;33.77;;;21.60;;
7527;SDS011;3805;49.006;8.514;2023-02-15T07:32:40;28.03;;;21.27;;
7527;SDS011;3805;49.006;8.514;2023-02-15T07:35:46;28.87;;;20.10;;
7527;SDS011;3805;49.006;8.514;2023-02-15T07:38:36;28.70;;;20.47;;
7527;SDS011;3805;49.006;8.514;2023-02-15T07:41:25;28.23;;;21.23;;
7527;SDS011;3805;49.006;8.514;2023-02-15T07:44:14;28.67;;;21.27;;
7527;SDS011;3805;49.006;8.514;2023-02-15T07:47:04;33.63;;;24.90;;
7527;SDS011;3805;49.006;8.514;2023-02-15T07:49:52;43.57;;;28.93;;
7527;SDS011;3805;49.006;8.514;2023-02-15T07:52:41;35.23;;;26.37;;
7527;SDS011;3805;49.006;8.514;2023-02-15T07:55:29;33.73;;;22.70;;
7527;SDS011;3805;49.006;8.514;2023-02-15T07:58:18;28.33;;;20.07;;
7527;SDS011;3805;49.006;8.514;2023-02-15T08:01:07;34.07;;;22.40;;
7527;SDS011;3805;49.006;8.514;2023-02-15T08:03:57;29.73;;;21.73;;
7527;SDS011;3805;49.006;8.514;2023-02-15T08:06:45;28.27;;;21.90;;
7527;SDS011;3805;49.006;8.514;2023-02-15T08:09:34;34.47;;;22.47;;
7527;SDS011;3805;49.006;8.514;2023-02-15T08:12:23;41.00;;;23.20;;
7527;SDS011;3805;49.006;8.514;2023-02-15T08:15:11;41.10;;;22.13;;
7527;SDS011;3805;49.006;8.514;2023-02-15T08:18:00;32.57;;;22.00;;
7527;SDS011;3805;49.006;8.514;2023-02-15T08:20:50;34.80;;;23.97;;
7527;SDS011;3805;49.006;8.514;2023-02-15T08:23:39;32.47;;;22.30;;
7527;SDS011;3805;49.006;8.514;2023-02-15T08:26:28;39.17;;;24.53;;
7527;SDS011;3805;49.006;8.514;2023-02-15T08:29:17;37.63;;;23.87;;
7527;SDS011;3805;49.006;8.514;2023-02-15T08:32:09;37.90;;;23.60;;
7527;SDS011;3805;49.006;8.514;2023-02-15T08:34:58;39.60;;;23.30;;
7527;SDS011;3805;49.006;8.514;2023-02-15T08:37:48;34.03;;;22.73;;
7527;SDS011;3805;49.006;8.514;2023-02-15T08:40:37;34.47;;;24.40;;
7527;SDS011;3805;49.006;8.514;2023-02-15T08:43:26;39.20;;;25.23;;
7527;SDS011;3805;49.006;8.514;2023-02-15T08:46:15;39.23;;;23.13;;
7527;SDS011;3805;49.006;8.514;2023-02-15T08:49:04;32.10;;;21.27;;
7527;SDS011;3805;49.006;8.514;2023-02-15T08:51:53;37.00;;;22.17;;
7527;SDS011;3805;49.006;8.514;2023-02-15T08:54:43;33.90;;;21.50;;
7527;SDS011;3805;49.006;8.514;2023-02-15T08:57:31;36.20;;;23.10;;
7527;SDS011;3805;49.006;8.514;2023-02-15T09:00:20;33.53;;;21.80;;
7527;SDS011;3805;49.006;8.514;2023-02-15T09:03:10;35.10;;;21.33;;
7527;SDS011;3805;49.006;8.514;2023-02-15T09:05:59;33.10;;;24.30;;
7527;SDS011;3805;49.006;8.514;2023-02-15T09:08:48;36.33;;;21.10;;
7527;SDS011;3805;49.006;8.514;2023-02-15T09:11:39;40.50;;;22.73;;
7527;SDS011;3805;49.006;8.514;2023-02-15T09:14:28;36.60;;;22.83;;
7527;SDS011;3805;49.006;8.514;2023-02-15T09:17:17;32.50;;;21.50;;
7527;SDS011;3805;49.006;8.514;2023-02-15T09:20:06;32.60;;;22.40;;
7527;SDS011;3805;49.006;8.514;2023-02-15T09:22:55;30.17;;;20.70;;
7527;SDS011;3805;49.006;8.514;2023-02-15T09:25:45;38.07;;;22.80;;
7527;SDS011;3805;49.006;8.514;2023-02-15T09:28:36;33.07;;;22.17;;
7527;SDS011;3805;49.006;8.514;2023-02-15T09:31:25;35.40;;;24.27;;
7527;SDS011;3805;49.006;8.514;2023-02-15T09:34:16;37.80;;;22.40;;
7527;SDS011;3805;49.006;8.514;2023-02-15T09:37:05;38.07;;;23.77;;
7527;SDS011;3805;49.006;8.514;2023-02-15T09:39:54;41.73;;;23.63;;
7527;SDS011;3805;49.006;8.514;2023-02-15T09:42:54;40.00;;;23.60;;
7527;SDS011;3805;49.006;8.514;2023-02-15T09:46:01;35.43;;;23.73;;
7527;SDS011;3805;49.006;8.514;2023-02-15T09:48:56;36.23;;;22.67;;
7527;SDS011;3805;49.006;8.514;2023-02-15T09:55:11;35.37;;;24.23;;
7527;SDS011;3805;49.006;8.514;2023-02-15T09:58:09;36.80;;;22.60;;
7527;SDS011;3805;49.006;8.514;2023-02-15T10:01:05;40.40;;;26.37;;
7527;SDS011;3805;49.006;8.514;2023-02-15T10:04:09;29.33;;;19.50;;
7527;SDS011;3805;49.006;8.514;2023-02-15T10:07:10;33.07;;;22.47;;
7527;SDS011;3805;49.006;8.514;2023-02-15T10:10:10;34.70;;;23.50;;
7527;SDS011;3805;49.006;8.514;2023-02-15T10:13:08;35.70;;;23.57;;
7527;SDS011;3805;49.006;8.514;2023-02-15T10:16:11;34.67;;;22.20;;
7527;SDS011;3805;49.006;8.514;2023-02-15T10:19:04;35.50;;;21.17;;
7527;SDS011;3805;49.006;8.514;2023-02-15T10:21:59;28.90;;;20.93;;
7527;SDS011;3805;49.006;8.514;2023-02-15T10:24:58;32.13;;;22.57;;
7527;SDS011;3805;49.006;8.514;2023-02-15T10:28:00;36.80;;;23.77;;
7527;SDS011;3805;49.006;8.514;2023-02-15T10:30:54;31.37;;;21.43;;
7527;SDS011;3805;49.006;8.514;2023-02-15T10:33:47;35.37;;;22.10;;
7527;SDS011;3805;49.006;8.514;2023-02-15T10:36:40;38.70;;;25.57;;
7527;SDS011;3805;49.006;8.514;2023-02-15T10:39:39;32.30;;;21.90;;
7527;SDS011;3805;49.006;8.514;2023-02-15T10:42:36;37.20;;;24.20;;
7527;SDS011;3805;49.006;8.514;2023-02-15T10:45:31;32.90;;;24.13;;
7527;SDS011;3805;49.006;8.514;2023-02-15T10:48:26;36.63;;;23.30;;
7527;SDS011;3805;49.006;8.514;2023-02-15T10:51:25;43.33;;;26.40;;
7527;SDS011;3805;49.006;8.514;2023-02-15T10:54:21;35.57;;;25.67;;
7527;SDS011;3805;49.006;8.514;2023-02-15T10:57:17;35.17;;;25.20;;
7527;SDS011;3805;49.006;8.514;2023-02-15T11:00:10;39.87;;;25.07;;
7527;SDS011;3805;49.006;8.514;2023-02-15T11:03:08;32.70;;;24.20;;
7527;SDS011;3805;49.006;8.514;2023-02-15T11:06:04;40.17;;;23.83;;
7527;SDS011;3805;49.006;8.514;2023-02-15T11:08:56;36.53;;;26.03;;
7527;SDS011;3805;49.006;8.514;2023-02-15T11:11:49;34.63;;;23.73;;
7527;SDS011;3805;49.006;8.514;2023-02-15T11:14:39;37.97;;;24.90;;
7527;SDS011;3805;49.006;8.514;2023-02-15T11:17:33;35.77;;;24.90;;
7527;SDS011;3805;49.006;8.514;2023-02-15T11:20:25;36.63;;;24.47;;
7527;SDS011;3805;49.006;8.514;2023-02-15T11:23:16;35.97;;;24.57;;
7527;SDS011;3805;49.006;8.514;2023-02-15T11:26:10;30.83;;;24.40;;
7527;SDS011;3805;49.006;8.514;2023-02-15T11:29:02;37.33;;;25.67;;
7527;SDS011;3805;49.006;8.514;2023-02-15T11:31:57;34.00;;;24.23;;
7527;SDS011;3805;49.006;8.514;2023-02-15T11:34:49;37.47;;;25.70;;
7527;SDS011;3805;49.006;8.514;2023-02-15T11:37:40;35.33;;;25.27;;
7527;SDS011;3805;49.006;8.514;2023-02-15T11:40:33;41.03;;;25.30;;
7527;SDS011;3805;49.006;8.514;2023-02-15T11:43:26;41.47;;;25.13;;
7527;SDS011;3805;49.006;8.514;2023-02-15T11:46:17;34.23;;;24.37;;
7527;SDS011;3805;49.006;8.514;2023-02-15T11:49:08;33.63;;;22.73;;
7527;SDS011;3805;49.006;8.514;2023-02-15T11:52:10;36.40;;;24.50;;
7527;SDS011;3805;49.006;8.514;2023-02-15T11:55:00;40.00;;;24.03;;
7527;SDS011;3805;49.006;8.514;2023-02-15T11:57:50;34.93;;;24.37;;
7527;SDS011;3805;49.006;8.514;2023-02-15T12:00:44;40.47;;;25.20;;
7527;SDS011;3805;49.006;8.514;2023-02-15T12:03:39;36.90;;;24.50;;
7527;SDS011;3805;49.006;8.514;2023-02-15T12:06:32;32.17;;;24.03;;
7527;SDS011;3805;49.006;8.514;2023-02-15T12:09:24;34.90;;;24.47;;
7527;SDS011;3805;49.006;8.514;2023-02-15T12:12:20;39.33;;;24.60;;
7527;SDS011;3805;49.006;8.514;2023-02-15T12:15:11;36.90;;;25.40;;
7527;SDS011;3805;49.006;8.514;2023-02-15T12:18:02;34.27;;;25.40;;
7527;SDS011;3805;49.006;8.514;2023-02-15T12:20:51;37.07;;;25.33;;
7527;SDS011;3805;49.006;8.514;2023-02-15T12:23:41;31.00;;;23.63;;
7527;SDS011;3805;49.006;8.514;2023-02-15T12:26:32;30.00;;;23.13;;
7527;SDS011;3805;49.006;8.514;2023-02-15T12:29:23;28.40;;;23.37;;
7527;SDS011;3805;49.006;8.514;2023-02-15T12:32:16;31.73;;;22.50;;
7527;SDS011;3805;49.006;8.514;2023-02-15T12:35:08;30.87;;;22.70;;
7527;SDS011;3805;49.006;8.514;2023-02-15T12:38:03;31.00;;;24.23;;
7527;SDS011;3805;49.006;8.514;2023-02-15T12:40:59;33.40;;;23.10;;
7527;SDS011;3805;49.006;8.514;2023-02-15T12:44:02;28.67;;;21.63;;
7527;SDS011;3805;49.006;8.514;2023-02-15T12:46:56;30.83;;;22.50;;
7527;SDS011;3805;49.006;8.514;2023-02-15T12:50:04;29.73;;;23.43;;
7527;SDS011;3805;49.006;8.514;2023-02-15T12:53:05;30.00;;;22.50;;
7527;SDS011;3805;49.006;8.514;2023-02-15T12:55:56;32.47;;;25.70;;
7527;SDS011;3805;49.006;8.514;2023-02-15T12:58:45;31.83;;;24.53;;
7527;SDS011;3805;49.006;8.514;2023-02-15T13:01:34;31.60;;;25.10;;
7527;SDS011;3805;49.006;8.514;2023-02-15T13:04:24;30.50;;;24.87;;
7527;SDS011;3805;49.006;8.514;2023-02-15T13:07:15;30.17;;;23.23;;
7527;SDS011;3805;49.006;8.514;2023-02-15T13:10:05;30.87;;;22.30;;
7527;SDS011;3805;49.006;8.514;2023-02-15T13:13:09;32.10;;;22.50;;
7527;SDS011;3805;49.006;8.514;2023-02-15T13:15:59;30.40;;;25.40;;
7527;SDS011;3805;49.006;8.514;2023-02-15T13:18:51;32.87;;;24.73;;
7527;SDS011;3805;49.006;8.514;2023-02-15T13:21:41;30.60;;;24.03;;
7527;SDS011;3805;49.006;8.514;2023-02-15T13:24:33;29.40;;;23.20;;
7527;SDS011;3805;49.006;8.514;2023-02-15T13:27:28;31.23;;;23.47;;
7527;SDS011;3805;49.006;8.514;2023-02-15T13:30:24;29.60;;;22.17;;
7527;SDS011;3805;49.006;8.514;2023-02-15T13:33:17;34.40;;;26.00;;
7527;SDS011;3805;49.006;8.514;2023-02-15T13:36:14;32.93;;;25.60;;
7527;SDS011;3805;49.006;8.514;2023-02-15T13:39:10;33.07;;;24.50;;
7527;SDS011;3805;49.006;8.514;2023-02-15T13:42:05;31.90;;;24.87;;
7527;SDS011;3805;49.006;8.514;2023-02-15T13:45:10;28.60;;;23.90;;
7527;SDS011;3805;49.006;8.514;2023-02-15T13:48:13;29.97;;;24.17;;
7527;SDS011;3805;49.006;8.514;2023-02-15T13:51:06;28.97;;;22.30;;
7527;SDS011;3805;49.006;8.514;2023-02-15T13:54:01;25.93;;;23.10;;
7527;SDS011;3805;49.006;8.514;2023-02-15T13:56:59;28.27;;;24.73;;
7527;SDS011;3805;49.006;8.514;2023-02-15T14:00:00;27.90;;;24.00;;
7527;SDS011;3805;49.006;8.514;2023-02-15T14:03:03;29.93;;;23.83;;
7527;SDS011;3805;49.006;8.514;2023-02-15T14:06:10;29.80;;;24.83;;
7527;SDS011;3805;49.006;8.514;2023-02-15T14:09:06;27.00;;;22.20;;
7527;SDS011;3805;49.006;8.514;2023-02-15T14:12:04;31.77;;;24.10;;
7527;SDS011;3805;49.006;8.514;2023-02-15T14:15:06;29.03;;;24.33;;
7527;SDS011;3805;49.006;8.514;2023-02-15T14:18:02;31.90;;;24.10;;
7527;SDS011;3805;49.006;8.514;2023-02-15T14:20:58;27.90;;;23.37;;
7527;SDS011;3805;49.006;8.514;2023-02-15T14:23:56;30.60;;;24.17;;
7527;SDS011;3805;49.006;8.514;2023-02-15T14:26:56;31.10;;;23.30;;
7527;SDS011;3805;49.006;8.514;2023-02-15T14:29:53;26.13;;;20.73;;
7527;SDS011;3805;49.006;8.514;2023-02-15T14:32:43;29.77;;;24.20;;
7527;SDS011;3805;49.006;8.514;2023-02-15T14:35:34;29.63;;;23.93;;
7527;SDS011;3805;49.006;8.514;2023-02-15T14:38:29;32.23;;;25.00;;
7527;SDS011;3805;49.006;8.514;2023-02-15T14:41:39;31.10;;;24.20;;
7527;SDS011;3805;49.006;8.514;2023-02-15T14:44:32;27.23;;;24.33;;
7527;SDS011;3805;49.006;8.514;2023-02-15T14:47:26;32.50;;;24.53;;
7527;SDS011;3805;49.006;8.514;2023-02-15T14:53:35;27.97;;;23.77;;
7527;SDS011;3805;49.006;8.514;2023-02-15T14:56:25;29.17;;;23.93;;
7527;SDS011;3805;49.006;8.514;2023-02-15T14:59:16;31.40;;;23.77;;
7527;SDS011;3805;49.006;8.514;2023-02-15T15:02:09;33.30;;;26.30;;
7527;SDS011;3805;49.006;8.514;2023-02-15T15:05:07;32.73;;;24.00;;
7527;SDS011;3805;49.006;8.514;2023-02-15T15:07:57;28.77;;;23.40;;
7527;SDS011;3805;49.006;8.514;2023-02-15T15:10:46;35.23;;;24.93;;
7527;SDS011;3805;49.006;8.514;2023-02-15T15:13:54;32.07;;;24.60;;
7527;SDS011;3805;49.006;8.514;2023-02-15T15:16:50;29.13;;;24.40;;
7527;SDS011;3805;49.006;8.514;2023-02-15T15:26:38;32.67;;;25.10;;
7527;SDS011;3805;49.006;8.514;2023-02-15T15:29:38;33.00;;;24.20;;
7527;SDS011;3805;49.006;8.514;2023-02-15T15:32:27;32.87;;;25.07;;
7527;SDS011;3805;49.006;8.514;2023-02-15T15:35:21;33.73;;;25.00;;
7527;SDS011;3805;49.006;8.514;2023-02-15T15:38:17;31.97;;;24.43;;
7527;SDS011;3805;49.006;8.514;2023-02-15T15:41:16;30.20;;;24.17;;
7527;SDS011;3805;49.006;8.514;2023-02-15T15:47:28;27.20;;;22.67;;
7527;SDS011;3805;49.006;8.514;2023-02-15T15:50:28;28.47;;;23.40;;
7527;SDS011;3805;49.006;8.514;2023-02-15T15:53:18;31.00;;;25.03;;
7527;SDS011;3805;49.006;8.514;2023-02-15T15:56:11;34.53;;;24.40;;
7527;SDS011;3805;49.006;8.514;2023-02-15T15:59:02;33.93;;;24.40;;
7527;SDS011;3805;49.006;8.514;2023-02-15T16:01:53;31.23;;;24.50;;
7527;SDS011;3805;49.006;8.514;2023-02-15T16:04:42;27.67;;;22.63;;
7527;SDS011;3805;49.006;8.514;2023-02-15T16:07:33;30.67;;;24.40;;
7527;SDS011;3805;49.006;8.514;2023-02-15T16:10:22;28.10;;;23.63;;
7527;SDS011;3805;49.006;8.514;2023-02-15T16:13:11;29.17;;;23.43;;
7527;SDS011;3805;49.006;8.514;2023-02-15T16:16:01;28.90;;;23.23;;
7527;SDS011;3805;49.006;8.514;2023-02-15T16:18:51;28.47;;;23.77;;
7527;SDS011;3805;49.006;8.514;2023-02-15T16:21:39;29.53;;;22.90;;
7527;SDS011;3805;49.006;8.514;2023-02-15T16:24:38;28.50;;;22.70;;
7527;SDS011;3805;49.006;8.514;2023-02-15T16:27:33;26.17;;;22.07;;
7527;SDS011;3805;49.006;8.514;2023-02-15T16:30:25;29.47;;;23.90;;
7527;SDS011;3805;49.006;8.514;2023-02-15T16:33:16;34.63;;;26.20;;
7527;SDS011;3805;49.006;8.514;2023-02-15T16:36:10;38.13;;;30.30;;
7527;SDS011;3805;49.006;8.514;2023-02-15T16:39:07;41.20;;;32.03;;
7527;SDS011;3805;49.006;8.514;2023-02-15T16:41:58;36.03;;;28.43;;
7527;SDS011;3805;49.006;8.514;2023-02-15T16:44:50;30.90;;;25.83;;
7527;SDS011;3805;49.006;8.514;2023-02-15T16:47:40;36.37;;;27.27;;
7527;SDS011;3805;49.006;8.514;2023-02-15T16:50:30;31.37;;;26.00;;
7527;SDS011;3805;49.006;8.514;2023-02-15T16:53:21;36.33;;;26.43;;
7527;SDS011;3805;49.006;8.514;2023-02-15T16:56:12;32.00;;;23.63;;
7527;SDS011;3805;49.006;8.514;2023-02-15T16:59:02;35.00;;;26.43;;
7527;SDS011;3805;49.006;8.514;2023-02-15T17:01:50;32.17;;;23.83;;
7527;SDS011;3805;49.006;8.514;2023-02-15T17:04:39;29.77;;;24.67;;
7527;SDS011;3805;49.006;8.514;2023-02-15T17:07:29;28.13;;;21.87;;
7527;SDS011;3805;49.006;8.514;2023-02-15T17:10:25;30.47;;;23.77;;
7527;SDS011;3805;49.006;8.514;2023-02-15T17:13:16;33.17;;;22.80;;
7527;SDS011;3805;49.006;8.514;2023-02-15T17:16:18;39.40;;;25.90;;
7527;SDS011;3805;49.006;8.514;2023-02-15T17:19:13;29.57;;;23.10;;
7527;SDS011;3805;49.006;8.514;2023-02-15T17:22:04;32.57;;;23.80;;
7527;SDS011;3805;49.006;8.514;2023-02-15T17:24:57;31.80;;;24.03;;
7527;SDS011;3805;49.006;8.514;2023-02-15T17:27:50;31.63;;;25.10;;
7527;SDS011;3805;49.006;8.514;2023-02-15T17:30:39;38.27;;;29.50;;
7527;SDS011;3805;49.006;8.514;2023-02-15T17:33:36;36.43;;;27.60;;
7527;SDS011;3805;49.006;8.514;2023-02-15T17:36:27;31.17;;;25.17;;
7527;SDS011;3805;49.006;8.514;2023-02-15T17:39:18;34.90;;;27.70;;
7527;SDS011;3805;49.006;8.514;2023-02-15T17:42:09;36.00;;;27.40;;
7527;SDS011;3805;49.006;8.514;2023-02-15T17:44:58;34.60;;;26.97;;
7527;SDS011;3805;49.006;8.514;2023-02-15T17:47:47;35.90;;;27.30;;
7527;SDS011;3805;49.006;8.514;2023-02-15T17:50:37;34.80;;;26.43;;
7527;SDS011;3805;49.006;8.514;2023-02-15T17:53:26;33.93;;;26.93;;
7527;SDS011;3805;49.006;8.514;2023-02-15T17:56:15;32.67;;;26.33;;